Time;durP1;ratioP1;P1;durP2;ratioP2;P2;SDS_P1;SDS_P2;PMS_P1;PMS_P2;Temp;Humidity;BMP_temperature;BMP_pressure;BME280_temperature;BME280_humidity;BME280_pressure;Samples;Min_cycle;Max_cycle;Signal;HPM_P1;HPM_P2
2023/06/23 00:02:21;;;;;;;24.92;19.38;;;18.20;99.90;;;;;;4983299;28;20038;-55
2023/06/23 00:04:46;;;;;;;22.48;15.93;;;18.20;99.90;;;;;;4983545;28;20117;-48
2023/06/23 00:07:12;;;;;;;16.77;12.85;;;18.20;99.90;;;;;;4983592;28;20051;-52
2023/06/23 00:09:37;;;;;;;14.95;12.20;;;18.20;99.90;;;;;;4983681;28;20125;-50
2023/06/23 00:12:07;;;;;;;15.52;11.68;;;18.20;99.90;;;;;;4984617;28;20074;-51
2023/06/23 00:14:34;;;;;;;16.52;11.48;;;18.20;99.90;;;;;;4984635;28;20042;-52
2023/06/23 00:17:00;;;;;;;15.90;9.95;;;18.20;99.90;;;;;;4984535;28;20400;-48
2023/06/23 00:19:25;;;;;;;14.55;9.00;;;18.30;99.90;;;;;;4983836;28;20042;-55
2023/06/23 00:21:52;;;;;;;12.60;8.57;;;18.20;99.90;;;;;;4984496;28;20509;-53
2023/06/23 00:24:18;;;;;;;15.43;8.68;;;18.20;99.90;;;;;;4983013;28;20042;-50
2023/06/23 00:26:43;;;;;;;13.38;8.65;;;18.20;99.90;;;;;;4983904;28;20066;-56
2023/06/23 00:29:09;;;;;;;13.27;8.82;;;18.10;99.90;;;;;;4983738;28;20085;-47
2023/06/23 00:31:35;;;;;;;16.80;14.10;;;18.10;99.90;;;;;;4984219;28;20046;-57
2023/06/23 00:34:01;;;;;;;22.60;18.05;;;18.00;99.90;;;;;;4984794;28;20096;-53
2023/06/23 00:36:30;;;;;;;28.35;21.42;;;18.00;99.90;;;;;;4983633;28;20049;-48
2023/06/23 00:38:56;;;;;;;28.35;25.45;;;18.00;99.90;;;;;;4983872;28;20050;-56
2023/06/23 00:41:22;;;;;;;27.10;20.38;;;18.00;99.90;;;;;;4983937;28;20629;-45
2023/06/23 00:43:50;;;;;;;20.13;15.35;;;18.00;99.90;;;;;;4984547;28;20074;-46
2023/06/23 00:46:17;;;;;;;19.67;13.50;;;18.10;99.90;;;;;;4982739;28;20484;-47
2023/06/23 00:48:43;;;;;;;16.00;11.55;;;18.00;99.90;;;;;;4984470;28;20045;-53
2023/06/23 00:51:09;;;;;;;18.98;13.30;;;18.00;99.90;;;;;;4982947;28;20206;-50
2023/06/23 00:53:35;;;;;;;19.52;16.85;;;18.00;99.90;;;;;;4982674;28;20043;-55
2023/06/23 00:56:02;;;;;;;24.23;17.08;;;18.00;99.90;;;;;;4983898;28;20054;-52
2023/06/23 00:58:28;;;;;;;21.00;17.52;;;18.00;99.90;;;;;;4983519;28;20042;-50
2023/06/23 01:00:55;;;;;;;26.08;23.48;;;18.00;99.90;;;;;;4983936;28;20449;-56
2023/06/23 01:03:20;;;;;;;26.63;24.02;;;17.90;99.90;;;;;;4984486;28;20181;-46
2023/06/23 01:05:49;;;;;;;26.48;23.13;;;17.90;99.90;;;;;;4987114;28;20137;-54
2023/06/23 01:08:36;;;;;;;20.73;18.63;;;17.90;99.90;;;;;;4985134;28;20193;-49
2023/06/23 01:11:10;;;;;;;18.33;16.25;;;17.90;99.90;;;;;;4979349;28;20047;-55
2023/06/23 01:13:41;;;;;;;13.70;12.10;;;17.90;99.90;;;;;;4967514;28;20394;-53
2023/06/23 01:16:15;;;;;;;26.08;21.50;;;17.80;99.90;;;;;;4967186;28;20093;-51
2023/06/23 01:18:58;;;;;;;26.83;24.23;;;17.80;99.90;;;;;;4967952;28;20456;-51
2023/06/23 01:21:59;;;;;;;16.08;11.90;;;17.70;99.90;;;;;;4968320;28;20046;-54
2023/06/23 01:24:52;;;;;;;10.77;8.43;;;17.70;99.90;;;;;;4967212;28;20086;-53
2023/06/23 01:27:52;;;;;;;12.23;6.75;;;17.60;99.90;;;;;;4967312;28;20047;-44
2023/06/23 01:30:25;;;;;;;9.55;6.68;;;17.60;99.90;;;;;;4965894;28;20464;-45
2023/06/23 01:32:56;;;;;;;11.13;6.57;;;17.50;99.90;;;;;;4966060;28;20042;-45
2023/06/23 01:35:27;;;;;;;10.23;6.45;;;17.60;99.90;;;;;;4967581;28;20047;-49
2023/06/23 01:38:10;;;;;;;8.77;6.03;;;17.60;99.90;;;;;;4966565;28;20049;-54
2023/06/23 01:40:40;;;;;;;8.73;6.03;;;17.60;99.90;;;;;;4966407;28;20121;-51
2023/06/23 01:43:08;;;;;;;10.95;6.32;;;17.70;99.90;;;;;;4967696;28;20469;-54
2023/06/23 01:45:34;;;;;;;13.98;6.30;;;17.70;99.90;;;;;;4966540;28;20097;-49
2023/06/23 01:48:06;;;;;;;11.63;8.02;;;17.70;99.90;;;;;;4966946;28;20505;-51
2023/06/23 01:50:33;;;;;;;17.95;9.38;;;17.70;99.90;;;;;;4969248;28;20444;-50
2023/06/23 01:53:02;;;;;;;10.00;7.75;;;17.80;99.90;;;;;;4976684;28;20049;-55
2023/06/23 01:55:29;;;;;;;11.38;6.65;;;17.70;99.90;;;;;;4985993;28;20046;-52
2023/06/23 01:57:56;;;;;;;12.00;5.90;;;17.70;99.90;;;;;;4986934;28;20046;-54
2023/06/23 02:00:22;;;;;;;9.15;5.53;;;17.80;99.90;;;;;;4984611;28;20043;-51
2023/06/23 02:02:51;;;;;;;10.55;6.00;;;17.80;99.90;;;;;;4986861;28;20425;-54
2023/06/23 02:05:20;;;;;;;11.85;6.03;;;17.80;99.90;;;;;;4986178;28;20050;-50
2023/06/23 02:07:50;;;;;;;12.48;5.78;;;17.80;99.90;;;;;;4985441;28;20046;-52
2023/06/23 02:10:17;;;;;;;9.35;5.60;;;17.80;99.90;;;;;;4986617;28;20080;-45
2023/06/23 02:12:45;;;;;;;11.85;5.90;;;17.80;99.90;;;;;;4986595;28;20117;-49
2023/06/23 02:15:13;;;;;;;12.23;6.43;;;17.80;99.90;;;;;;4985464;28;20664;-48
2023/06/23 02:17:41;;;;;;;9.40;5.63;;;17.80;99.90;;;;;;4985653;28;20065;-51
2023/06/23 02:20:13;;;;;;;8.82;5.63;;;17.70;99.90;;;;;;4986492;28;20088;-56
2023/06/23 02:22:40;;;;;;;9.90;6.15;;;17.70;99.90;;;;;;4984699;28;20073;-44
2023/06/23 02:25:07;;;;;;;10.50;5.35;;;17.70;99.90;;;;;;4986552;28;20078;-54
2023/06/23 02:27:33;;;;;;;8.50;5.40;;;17.70;99.90;;;;;;4985940;28;20112;-51
2023/06/23 02:30:00;;;;;;;9.70;5.30;;;17.70;99.90;;;;;;4985017;28;20061;-50
2023/06/23 02:32:26;;;;;;;7.50;5.22;;;17.70;99.90;;;;;;4985396;28;20542;-46
2023/06/23 02:34:51;;;;;;;12.90;5.85;;;17.70;99.90;;;;;;4985562;28;20081;-55
2023/06/23 02:37:24;;;;;;;9.63;5.00;;;17.80;99.90;;;;;;4985335;28;20043;-51
2023/06/23 02:40:00;;;;;;;9.05;5.40;;;17.80;99.90;;;;;;4984925;28;20414;-55
2023/06/23 02:42:33;;;;;;;10.23;5.30;;;17.80;99.90;;;;;;4986208;28;20537;-55
2023/06/23 02:45:03;;;;;;;11.68;5.38;;;17.80;99.90;;;;;;4985207;28;20049;-56
2023/06/23 02:47:33;;;;;;;9.23;5.43;;;17.80;99.90;;;;;;4985971;28;20046;-49
2023/06/23 02:50:02;;;;;;;9.07;5.60;;;17.90;99.90;;;;;;4985534;28;20042;-50
2023/06/23 02:52:36;;;;;;;11.82;5.57;;;18.00;99.90;;;;;;4984628;28;20521;-51
2023/06/23 02:55:04;;;;;;;12.25;5.70;;;17.90;99.90;;;;;;4985776;28;20092;-55
2023/06/23 02:57:31;;;;;;;7.78;4.93;;;17.90;99.90;;;;;;4986141;28;20054;-46
2023/06/23 03:00:00;;;;;;;10.90;4.70;;;17.90;99.90;;;;;;4984539;28;20137;-55
2023/06/23 03:02:29;;;;;;;9.80;5.30;;;17.90;99.90;;;;;;4984724;28;20034;-45
2023/06/23 03:04:57;;;;;;;9.43;5.28;;;17.90;99.90;;;;;;4984693;28;20741;-55
2023/06/23 03:07:23;;;;;;;10.73;5.35;;;18.10;99.90;;;;;;4984358;28;20089;-49
2023/06/23 03:09:50;;;;;;;11.95;5.72;;;17.90;99.90;;;;;;4984421;28;20444;-52
2023/06/23 03:12:15;;;;;;;11.18;5.18;;;18.00;99.90;;;;;;4985024;28;20081;-50
2023/06/23 03:14:41;;;;;;;9.77;5.25;;;17.90;99.90;;;;;;4984890;28;20081;-53
2023/06/23 03:17:15;;;;;;;9.50;5.10;;;17.90;99.90;;;;;;4985208;28;20059;-55
2023/06/23 03:19:47;;;;;;;11.25;5.43;;;17.80;99.90;;;;;;4985213;28;20421;-55
2023/06/23 03:22:18;;;;;;;9.07;5.55;;;17.80;99.90;;;;;;4985063;28;20058;-54
2023/06/23 03:24:49;;;;;;;10.18;5.20;;;17.80;99.90;;;;;;4984702;28;20073;-50
2023/06/23 03:27:15;;;;;;;13.77;5.32;;;17.80;99.90;;;;;;4984286;28;20604;-56
2023/06/23 03:29:48;;;;;;;10.48;5.47;;;17.80;99.90;;;;;;4984613;28;20046;-52
2023/06/23 03:32:22;;;;;;;7.28;4.75;;;17.80;99.90;;;;;;4984423;28;20050;-45
2023/06/23 03:35:02;;;;;;;11.57;5.18;;;17.80;99.90;;;;;;4984271;28;20042;-48
2023/06/23 03:37:30;;;;;;;9.52;5.03;;;17.90;99.90;;;;;;4983178;28;20062;-45
2023/06/23 03:40:06;;;;;;;10.23;5.03;;;17.90;99.90;;;;;;4983439;28;20112;-48
2023/06/23 03:42:36;;;;;;;11.43;5.22;;;17.90;99.90;;;;;;4982664;28;20070;-48
2023/06/23 03:45:04;;;;;;;9.02;5.10;;;17.90;99.90;;;;;;4984274;28;20057;-56
2023/06/23 03:47:32;;;;;;;9.35;4.70;;;17.80;99.90;;;;;;4984186;28;20077;-46
2023/06/23 03:50:08;;;;;;;12.43;4.82;;;17.80;99.90;;;;;;4984894;28;20046;-44
2023/06/23 03:52:36;;;;;;;8.00;4.85;;;17.80;99.90;;;;;;4983397;28;20128;-55
2023/06/23 03:55:03;;;;;;;10.32;5.10;;;17.80;99.90;;;;;;4984136;28;20065;-50
2023/06/23 03:57:31;;;;;;;12.45;5.57;;;17.80;99.90;;;;;;4984717;28;20043;-55
2023/06/23 03:59:58;;;;;;;8.95;5.30;;;17.80;99.90;;;;;;4984292;28;20192;-47
2023/06/23 04:02:26;;;;;;;8.55;5.40;;;17.80;99.90;;;;;;4981909;28;20050;-55
2023/06/23 04:04:55;;;;;;;10.25;4.97;;;17.80;99.90;;;;;;4962988;28;20059;-51
2023/06/23 04:07:24;;;;;;;10.65;4.80;;;17.80;99.90;;;;;;4963703;28;20189;-56
2023/06/23 04:09:51;;;;;;;9.98;4.97;;;17.80;99.90;;;;;;4963709;28;20249;-53
2023/06/23 04:12:18;;;;;;;11.25;5.53;;;17.80;99.90;;;;;;4964982;28;20047;-54
2023/06/23 04:14:47;;;;;;;9.63;5.45;;;17.80;99.90;;;;;;4965024;28;20051;-53
2023/06/23 04:17:15;;;;;;;10.82;5.63;;;17.80;99.90;;;;;;4965135;28;20050;-51
2023/06/23 04:19:44;;;;;;;9.45;5.65;;;17.80;99.90;;;;;;4965284;28;20051;-54
2023/06/23 04:22:14;;;;;;;12.38;5.80;;;17.90;99.90;;;;;;4964329;28;20043;-48
2023/06/23 04:24:40;;;;;;;12.20;5.55;;;17.90;99.90;;;;;;4963288;28;20179;-55
2023/06/23 04:27:07;;;;;;;12.95;6.65;;;17.90;99.90;;;;;;4964837;28;20057;-49
2023/06/23 04:29:36;;;;;;;10.30;5.80;;;17.90;99.90;;;;;;4964944;28;20047;-55
2023/06/23 04:32:02;;;;;;;9.98;6.28;;;17.90;99.90;;;;;;4965189;28;20082;-48
2023/06/23 04:34:28;;;;;;;12.13;6.47;;;17.90;99.90;;;;;;4964142;28;20050;-55
2023/06/23 04:37:04;;;;;;;16.67;6.28;;;17.80;99.90;;;;;;4964583;28;20042;-46
2023/06/23 04:39:43;;;;;;;11.15;6.72;;;17.80;99.90;;;;;;4966800;28;20073;-48
2023/06/23 04:42:13;;;;;;;15.60;6.43;;;17.80;99.90;;;;;;4967574;28;20047;-51
2023/06/23 04:44:50;;;;;;;13.52;6.47;;;17.80;99.90;;;;;;4968161;28;20053;-50
2023/06/23 04:47:19;;;;;;;9.70;6.10;;;17.80;99.90;;;;;;4968436;28;20101;-49
2023/06/23 04:49:47;;;;;;;14.15;7.30;;;17.80;99.90;;;;;;4966781;28;20051;-57
2023/06/23 04:52:16;;;;;;;13.68;6.82;;;17.90;99.90;;;;;;4967502;28;20134;-50
2023/06/23 04:54:44;;;;;;;18.08;6.95;;;17.80;99.90;;;;;;4968161;28;20445;-44
2023/06/23 04:57:17;;;;;;;13.90;6.45;;;17.80;99.90;;;;;;4967062;28;20051;-50
2023/06/23 04:59:48;;;;;;;15.27;6.78;;;17.80;99.90;;;;;;4967622;28;20046;-47
2023/06/23 05:02:16;;;;;;;12.85;6.30;;;17.80;99.90;;;;;;4967946;28;20457;-56
2023/06/23 05:04:43;;;;;;;13.85;7.18;;;17.80;99.90;;;;;;4968104;28;20059;-57
2023/06/23 05:07:12;;;;;;;13.30;6.90;;;17.70;99.90;;;;;;4966513;28;20089;-55
2023/06/23 05:09:39;;;;;;;14.98;6.93;;;17.70;99.90;;;;;;4967595;28;20151;-53
2023/06/23 05:12:09;;;;;;;15.98;6.75;;;17.70;99.90;;;;;;4967145;28;20046;-56
2023/06/23 05:14:38;;;;;;;10.18;6.57;;;17.70;99.90;;;;;;4966684;28;20079;-56
2023/06/23 05:17:06;;;;;;;13.23;7.13;;;17.70;99.90;;;;;;4968137;28;20046;-48
2023/06/23 05:19:36;;;;;;;15.52;7.30;;;17.70;99.90;;;;;;4968152;28;20042;-54
2023/06/23 05:22:08;;;;;;;14.45;7.47;;;17.70;99.90;;;;;;4967883;28;20097;-52
2023/06/23 05:24:42;;;;;;;12.88;7.72;;;17.70;99.90;;;;;;4968117;28;20039;-47
2023/06/23 05:27:10;;;;;;;16.75;7.80;;;17.80;99.90;;;;;;4967085;28;20047;-47
2023/06/23 05:29:39;;;;;;;16.10;7.93;;;17.80;99.90;;;;;;4967573;28;20086;-46
2023/06/23 05:32:08;;;;;;;16.40;7.40;;;18.00;99.90;;;;;;4965857;28;20694;-52
2023/06/23 05:34:35;;;;;;;13.02;7.93;;;18.10;99.90;;;;;;4968432;28;20113;-56
2023/06/23 05:37:03;;;;;;;12.88;7.65;;;18.20;99.90;;;;;;4967874;28;20078;-48
2023/06/23 05:39:31;;;;;;;16.17;7.85;;;18.30;99.90;;;;;;4966413;28;20082;-48
2023/06/23 05:41:56;;;;;;;13.93;8.10;;;18.40;99.90;;;;;;4967770;28;20047;-49
2023/06/23 05:44:22;;;;;;;14.63;8.10;;;18.50;99.90;;;;;;4967459;28;20398;-56
2023/06/23 05:46:52;;;;;;;14.85;7.82;;;18.60;99.90;;;;;;4967375;28;20509;-50
2023/06/23 05:49:21;;;;;;;14.23;7.75;;;18.70;99.90;;;;;;4967035;28;20069;-45
2023/06/23 05:51:54;;;;;;;15.73;7.65;;;18.80;99.90;;;;;;4967905;28;20070;-48
2023/06/23 05:54:22;;;;;;;12.48;8.02;;;18.80;99.90;;;;;;4973773;28;20050;-46
2023/06/23 05:56:57;;;;;;;11.90;7.65;;;18.70;99.90;;;;;;4986839;28;20046;-55
2023/06/23 05:59:54;;;;;;;16.77;8.15;;;18.70;99.90;;;;;;4986368;28;20057;-52
2023/06/23 06:02:24;;;;;;;12.63;7.50;;;18.60;99.90;;;;;;4985616;28;20064;-48
2023/06/23 06:04:56;;;;;;;13.98;8.25;;;18.60;99.90;;;;;;4986253;28;20457;-53
2023/06/23 06:07:22;;;;;;;12.05;7.80;;;18.50;99.90;;;;;;4983394;28;20058;-58
2023/06/23 06:09:49;;;;;;;15.38;8.43;;;18.60;99.90;;;;;;4986493;28;20065;-45
2023/06/23 06:12:16;;;;;;;17.33;7.78;;;18.50;99.90;;;;;;4984906;28;20053;-49
2023/06/23 06:14:43;;;;;;;12.75;7.93;;;18.60;99.90;;;;;;4985147;28;20054;-55
2023/06/23 06:17:10;;;;;;;13.30;7.80;;;18.60;99.90;;;;;;4986025;28;20112;-50
2023/06/23 06:19:39;;;;;;;14.82;8.43;;;18.60;99.90;;;;;;4986305;28;20455;-54
2023/06/23 06:22:09;;;;;;;12.15;8.38;;;18.60;99.90;;;;;;4984278;28;20074;-48
2023/06/23 06:24:36;;;;;;;14.40;8.63;;;18.60;99.90;;;;;;4986289;28;20046;-54
2023/06/23 06:27:04;;;;;;;12.35;8.30;;;18.60;99.90;;;;;;4985325;28;20050;-55
2023/06/23 06:29:32;;;;;;;15.50;8.63;;;18.60;99.90;;;;;;4984730;28;20046;-46
2023/06/23 06:31:59;;;;;;;19.58;9.10;;;18.60;99.90;;;;;;4985302;28;20054;-54
2023/06/23 06:34:26;;;;;;;16.20;9.27;;;18.60;99.90;;;;;;4986149;28;20047;-45
2023/06/23 06:36:55;;;;;;;14.13;8.85;;;18.60;99.90;;;;;;4986220;28;20049;-55
2023/06/23 06:39:22;;;;;;;12.85;8.52;;;18.60;99.90;;;;;;4984426;28;20042;-56
2023/06/23 06:41:49;;;;;;;16.35;8.70;;;18.60;99.90;;;;;;4985861;28;20234;-55
2023/06/23 06:44:15;;;;;;;16.60;9.57;;;18.70;99.90;;;;;;4985895;28;20049;-53
2023/06/23 06:46:43;;;;;;;14.85;8.98;;;18.70;99.90;;;;;;4985162;28;20049;-49
2023/06/23 06:49:10;;;;;;;19.40;10.00;;;18.80;99.90;;;;;;4985536;28;20485;-55
2023/06/23 06:51:40;;;;;;;13.00;8.48;;;19.00;99.90;;;;;;4985957;28;20496;-48
2023/06/23 06:54:06;;;;;;;13.32;8.23;;;19.30;99.90;;;;;;4984509;28;20038;-52
2023/06/23 06:56:33;;;;;;;16.33;8.05;;;19.90;99.90;;;;;;4983876;28;20104;-52
2023/06/23 06:58:59;;;;;;;14.50;7.45;;;20.50;99.90;;;;;;4984772;28;20101;-51
2023/06/23 07:01:25;;;;;;;14.18;8.18;;;21.20;99.90;;;;;;4984802;28;20043;-48
2023/06/23 07:03:53;;;;;;;12.02;7.15;;;21.70;99.90;;;;;;4983960;28;20129;-48
2023/06/23 07:06:19;;;;;;;11.82;7.25;;;22.00;99.90;;;;;;4984694;28;20436;-55
2023/06/23 07:08:44;;;;;;;11.48;6.50;;;22.30;99.90;;;;;;4984139;28;20046;-56
2023/06/23 07:11:12;;;;;;;9.75;6.75;;;22.40;99.90;;;;;;4985257;28;20038;-47
2023/06/23 07:13:38;;;;;;;10.23;6.20;;;22.50;99.90;;;;;;4979741;28;20409;-55
2023/06/23 07:16:04;;;;;;;10.10;6.00;;;22.60;99.90;;;;;;4976750;28;20042;-54
2023/06/23 07:18:30;;;;;;;10.88;6.57;;;22.60;99.90;;;;;;4971752;28;20042;-53
2023/06/23 07:20:56;;;;;;;8.43;5.95;;;22.80;99.90;;;;;;4946681;28;20134;-55
2023/06/23 07:23:22;;;;;;;13.38;5.80;;;23.00;99.90;;;;;;4944386;29;20490;-53
2023/06/23 07:25:48;;;;;;;9.27;5.25;;;22.90;99.90;;;;;;4960759;28;20449;-45
2023/06/23 07:28:14;;;;;;;11.43;5.38;;;22.80;99.90;;;;;;4972154;28;20136;-49
2023/06/23 07:30:43;;;;;;;10.82;5.75;;;22.60;99.90;;;;;;4974200;28;20099;-56
2023/06/23 07:33:08;;;;;;;9.98;5.47;;;22.50;99.90;;;;;;4965663;28;20148;-57
2023/06/23 07:35:34;;;;;;;9.57;5.05;;;22.50;99.90;;;;;;4963387;28;20083;-46
2023/06/23 07:38:00;;;;;;;8.25;4.95;;;22.50;99.90;;;;;;4964035;28;20042;-56
2023/06/23 07:40:25;;;;;;;8.55;4.38;;;22.50;99.90;;;;;;4965013;28;20046;-52
2023/06/23 07:42:51;;;;;;;8.48;4.57;;;22.60;99.90;;;;;;4969355;28;20050;-52
2023/06/23 07:45:17;;;;;;;9.93;4.45;;;22.50;99.90;;;;;;4980780;28;20075;-53
2023/06/23 07:47:42;;;;;;;8.90;4.50;;;22.50;99.90;;;;;;4983666;28;20404;-47
2023/06/23 07:50:08;;;;;;;9.07;4.45;;;22.70;99.90;;;;;;4980544;28;20069;-52
2023/06/23 07:52:34;;;;;;;8.02;4.60;;;22.80;99.90;;;;;;4944814;28;20126;-44
2023/06/23 07:54:59;;;;;;;6.47;4.13;;;22.70;99.90;;;;;;4957402;28;20391;-54
2023/06/23 07:57:25;;;;;;;6.15;3.97;;;22.60;99.90;;;;;;4955890;28;20038;-48
2023/06/23 07:59:51;;;;;;;9.35;4.07;;;22.50;99.90;;;;;;4951986;28;20725;-51
2023/06/23 08:02:17;;;;;;;9.85;4.47;;;22.40;99.90;;;;;;4964328;28;20150;-54
2023/06/23 08:04:42;;;;;;;7.03;4.25;;;22.50;99.90;;;;;;4957529;28;20120;-51
2023/06/23 08:07:08;;;;;;;7.05;3.88;;;22.50;99.90;;;;;;4953093;28;20043;-57
2023/06/23 08:09:34;;;;;;;7.82;4.13;;;22.50;99.90;;;;;;4971335;28;20050;-45
2023/06/23 08:11:59;;;;;;;6.03;3.75;;;22.60;99.90;;;;;;4959563;28;20125;-56
2023/06/23 08:14:25;;;;;;;7.60;4.00;;;22.80;99.90;;;;;;4975694;28;20043;-53
2023/06/23 08:16:51;;;;;;;5.03;3.67;;;23.00;99.90;;;;;;4969037;28;20053;-53
2023/06/23 08:19:21;;;;;;;6.68;3.72;;;23.10;99.90;;;;;;4968757;28;20042;-56
2023/06/23 08:21:48;;;;;;;6.50;3.90;;;23.20;99.90;;;;;;4967990;28;20642;-52
2023/06/23 08:24:14;;;;;;;5.18;3.83;;;23.50;99.90;;;;;;4969841;28;20047;-56
2023/06/23 08:26:40;;;;;;;7.22;3.72;;;23.80;99.90;;;;;;4968689;28;20367;-46
2023/06/23 08:29:05;;;;;;;6.30;4.07;;;24.00;99.90;;;;;;4968805;28;20050;-50
2023/06/23 08:31:31;;;;;;;8.80;4.07;;;24.00;99.90;;;;;;4968591;28;20049;-56
2023/06/23 08:33:56;;;;;;;6.70;3.60;;;24.10;99.90;;;;;;4967537;28;20123;-51
2023/06/23 08:36:22;;;;;;;8.30;3.78;;;24.10;99.90;;;;;;4967206;28;20194;-55
2023/06/23 08:38:48;;;;;;;5.85;4.00;;;24.20;99.90;;;;;;4966673;28;20039;-51
2023/06/23 08:41:18;;;;;;;8.07;4.45;;;24.30;99.90;;;;;;4968171;28;20059;-54
2023/06/23 08:43:47;;;;;;;5.28;3.70;;;24.40;99.90;;;;;;4966774;28;20474;-56
2023/06/23 08:46:15;;;;;;;6.90;3.60;;;24.50;99.90;;;;;;4967518;28;20074;-46
2023/06/23 08:48:45;;;;;;;5.30;3.70;;;24.60;99.90;;;;;;4968429;28;20042;-50
2023/06/23 08:51:11;;;;;;;5.45;3.92;;;24.70;99.90;;;;;;4967832;28;20047;-49
2023/06/23 08:53:37;;;;;;;5.65;4.10;;;24.80;99.80;;;;;;4968328;28;20073;-58
2023/06/23 08:56:04;;;;;;;6.72;3.65;;;24.80;99.60;;;;;;4968104;28;20042;-52
2023/06/23 08:58:30;;;;;;;5.15;3.58;;;24.80;99.50;;;;;;4981623;28;20065;-55
2023/06/23 09:00:56;;;;;;;4.80;3.75;;;24.80;99.20;;;;;;4976878;28;20043;-54
2023/06/23 09:03:22;;;;;;;4.78;3.60;;;25.00;99.90;;;;;;4979550;28;20046;-49
2023/06/23 09:05:48;;;;;;;5.65;3.75;;;25.20;99.30;;;;;;4983883;28;20061;-56
2023/06/23 09:08:14;;;;;;;8.20;3.60;;;25.50;99.10;;;;;;4981328;28;20133;-52
2023/06/23 09:10:40;;;;;;;4.75;3.35;;;25.70;98.80;;;;;;4986059;28;20050;-54
2023/06/23 09:13:25;;;;;;;5.95;3.42;;;26.00;97.40;;;;;;4986763;28;20226;-52
2023/06/23 09:15:51;;;;;;;6.00;3.30;;;26.00;97.40;;;;;;4986193;28;20501;-51
2023/06/23 09:18:17;;;;;;;5.53;3.53;;;26.10;96.70;;;;;;4988058;28;20053;-54
2023/06/23 09:20:46;;;;;;;5.00;3.30;;;26.10;96.20;;;;;;4987413;28;20080;-56
2023/06/23 09:23:20;;;;;;;5.07;3.53;;;26.20;95.90;;;;;;4986016;28;20085;-51
2023/06/23 09:25:53;;;;;;;4.93;3.00;;;26.30;95.90;;;;;;4985695;28;20053;-49
2023/06/23 09:28:30;;;;;;;5.80;3.20;;;26.30;95.30;;;;;;4986797;28;20490;-52
2023/06/23 09:30:58;;;;;;;6.43;3.13;;;26.30;94.80;;;;;;4981534;28;20043;-50
2023/06/23 09:33:25;;;;;;;6.93;3.33;;;26.30;95.00;;;;;;4967852;28;20042;-55
2023/06/23 09:35:54;;;;;;;5.43;3.38;;;26.40;94.40;;;;;;4967550;28;20050;-45
2023/06/23 09:38:27;;;;;;;4.65;3.33;;;26.50;94.10;;;;;;4966928;28;20050;-53
2023/06/23 09:41:08;;;;;;;4.82;3.00;;;26.30;92.50;;;;;;4966981;28;20094;-53
2023/06/23 09:43:51;;;;;;;4.32;3.40;;;26.30;93.60;;;;;;4967336;28;20030;-57
2023/06/23 09:46:19;;;;;;;6.03;2.97;;;26.20;93.40;;;;;;4967928;28;20049;-51
2023/06/23 09:48:50;;;;;;;7.80;3.05;;;26.10;93.90;;;;;;4971693;28;20713;-54
2023/06/23 09:51:19;;;;;;;5.72;2.97;;;26.10;93.80;;;;;;4969360;28;20046;-56
2023/06/23 09:53:46;;;;;;;5.78;3.13;;;26.30;93.60;;;;;;4984728;28;20464;-53
2023/06/23 09:56:20;;;;;;;4.68;3.17;;;26.40;93.30;;;;;;4986141;28;20042;-45
2023/06/23 09:58:47;;;;;;;3.70;3.05;;;26.60;93.00;;;;;;4986191;28;20555;-52
2023/06/23 10:01:18;;;;;;;4.88;3.63;;;26.70;93.00;;;;;;4985703;28;20042;-49
2023/06/23 10:03:45;;;;;;;4.85;3.05;;;26.70;92.70;;;;;;4985763;28;20057;-47
2023/06/23 10:06:30;;;;;;;4.32;3.40;;;26.60;92.60;;;;;;4986332;28;20058;-53
2023/06/23 10:08:57;;;;;;;3.80;3.03;;;26.60;92.90;;;;;;4986026;28;20112;-55
2023/06/23 10:11:34;;;;;;;4.75;3.25;;;26.60;93.20;;;;;;4983140;28;20050;-51
2023/06/23 10:14:05;;;;;;;5.38;3.90;;;26.80;93.40;;;;;;4985142;28;20078;-54
2023/06/23 10:16:31;;;;;;;5.53;4.10;;;26.90;92.50;;;;;;4982027;28;20393;-46
2023/06/23 10:18:57;;;;;;;5.18;3.40;;;26.90;92.60;;;;;;4980574;28;20057;-51
2023/06/23 10:21:24;;;;;;;10.15;3.50;;;26.90;92.80;;;;;;4982513;28;20053;-56
2023/06/23 10:23:51;;;;;;;4.25;2.63;;;26.90;92.60;;;;;;4983490;28;20445;-52
2023/06/23 10:26:18;;;;;;;5.45;3.40;;;27.10;91.70;;;;;;4985182;28;20046;-56
2023/06/23 10:28:46;;;;;;;5.18;3.00;;;27.10;91.40;;;;;;4984399;28;20106;-52
2023/06/23 10:31:13;;;;;;;3.92;2.80;;;27.00;91.80;;;;;;4983870;28;20136;-49
2023/06/23 10:33:40;;;;;;;4.88;2.97;;;27.10;92.10;;;;;;4969771;28;20050;-45
2023/06/23 10:36:08;;;;;;;5.55;3.38;;;27.10;91.50;;;;;;4964194;28;20086;-54
2023/06/23 10:38:38;;;;;;;5.93;3.70;;;27.10;92.30;;;;;;4965360;28;20051;-45
2023/06/23 10:41:04;;;;;;;4.57;3.53;;;27.20;92.00;;;;;;4966445;28;20047;-49
2023/06/23 10:43:33;;;;;;;4.22;3.05;;;27.30;91.80;;;;;;4986221;28;20061;-55
2023/06/23 10:46:00;;;;;;;3.85;3.17;;;27.50;92.00;;;;;;4985279;28;20053;-45
2023/06/23 10:48:26;;;;;;;4.80;3.25;;;27.70;91.90;;;;;;4985157;28;20729;-50
2023/06/23 10:50:53;;;;;;;5.22;3.10;;;27.80;92.00;;;;;;4984557;28;20101;-55
2023/06/23 10:53:25;;;;;;;5.20;3.78;;;27.80;91.70;;;;;;4974775;28;20052;-53
2023/06/23 10:55:55;;;;;;;4.93;3.60;;;27.80;92.00;;;;;;4971216;28;20043;-56
2023/06/23 10:58:21;;;;;;;6.05;3.50;;;27.80;91.70;;;;;;4966144;28;20053;-52
2023/06/23 11:01:00;;;;;;;5.43;3.72;;;27.60;91.40;;;;;;4966065;28;20042;-55
2023/06/23 11:03:36;;;;;;;6.90;3.67;;;27.40;92.20;;;;;;4965560;28;20051;-48
2023/06/23 11:06:07;;;;;;;5.25;3.45;;;27.40;92.20;;;;;;4964255;28;20054;-52
2023/06/23 11:08:36;;;;;;;4.07;2.88;;;27.50;91.50;;;;;;4970729;28;20065;-55
2023/06/23 11:11:06;;;;;;;5.53;3.67;;;27.50;91.50;;;;;;4984964;28;20428;-49
2023/06/23 11:13:37;;;;;;;3.33;2.72;;;27.50;91.50;;;;;;4985182;28;20057;-48
2023/06/23 11:16:05;;;;;;;3.90;2.88;;;27.50;91.50;;;;;;4984487;28;20504;-49
2023/06/23 11:18:30;;;;;;;7.45;3.80;;;27.70;91.70;;;;;;4984844;28;20104;-54
2023/06/23 11:21:25;;;;;;;4.60;2.70;;;27.80;91.10;;;;;;4984414;28;20042;-49
2023/06/23 11:24:09;;;;;;;;;;;27.90;91.80;;;;;;4977178;28;20050;-54
2023/06/23 11:26:35;;;;;;;4.00;3.37;;;27.90;91.50;;;;;;4979125;28;19921;-55
2023/06/23 11:29:00;;;;;;;5.40;3.25;;;27.70;91.60;;;;;;4977221;28;20390;-49
2023/06/23 11:31:27;;;;;;;5.60;3.13;;;27.70;91.50;;;;;;4964211;28;20105;-57
2023/06/23 11:34:00;;;;;;;4.53;3.20;;;27.70;91.80;;;;;;4964994;28;20093;-56
2023/06/23 11:36:27;;;;;;;5.13;2.95;;;27.90;91.80;;;;;;4978968;28;20043;-48
2023/06/23 11:38:57;;;;;;;4.20;3.50;;;27.90;91.70;;;;;;4984778;28;20042;-52
2023/06/23 11:41:31;;;;;;;4.45;3.30;;;28.10;91.90;;;;;;4968865;28;20039;-49
2023/06/23 11:43:58;;;;;;;5.18;3.72;;;28.20;91.90;;;;;;4965185;28;20390;-49
2023/06/23 11:46:24;;;;;;;5.13;3.70;;;28.30;92.00;;;;;;4982331;28;20452;-55
2023/06/23 11:48:50;;;;;;;4.85;3.67;;;28.10;92.20;;;;;;4983874;28;20057;-54
2023/06/23 11:51:17;;;;;;;5.07;3.95;;;28.10;92.20;;;;;;4980199;28;20047;-49
2023/06/23 11:53:43;;;;;;;5.80;3.78;;;28.10;91.70;;;;;;4972369;28;20121;-45
2023/06/23 11:56:17;;;;;;;5.85;3.60;;;28.00;92.00;;;;;;4974260;28;20528;-52
2023/06/23 11:58:49;;;;;;;7.57;4.00;;;28.10;91.90;;;;;;4978451;28;20042;-50
2023/06/23 12:01:17;;;;;;;4.93;3.90;;;28.20;91.80;;;;;;4979001;28;20046;-56
2023/06/23 12:03:51;;;;;;;5.90;4.15;;;28.10;92.30;;;;;;4977247;28;20448;-53
2023/06/23 12:06:18;;;;;;;5.20;4.25;;;27.90;92.50;;;;;;4982947;28;20058;-56
2023/06/23 12:08:51;;;;;;;6.63;4.30;;;27.90;92.70;;;;;;4984809;28;20042;-55
2023/06/23 12:11:20;;;;;;;5.95;4.57;;;28.00;92.30;;;;;;4984704;28;20042;-54
2023/06/23 12:13:48;;;;;;;7.40;4.25;;;28.10;92.50;;;;;;4983331;28;20041;-56
2023/06/23 12:16:14;;;;;;;5.85;4.25;;;28.00;92.40;;;;;;4975379;28;20057;-55
2023/06/23 12:18:48;;;;;;;4.95;4.40;;;28.00;92.10;;;;;;4964557;28;20077;-53
2023/06/23 12:21:15;;;;;;;4.57;4.10;;;28.10;92.00;;;;;;4968114;28;20046;-55
2023/06/23 12:23:43;;;;;;;7.35;3.90;;;28.00;91.70;;;;;;4975691;28;20473;-53
2023/06/23 12:26:09;;;;;;;5.20;3.58;;;27.80;92.10;;;;;;4984845;28;20054;-53
2023/06/23 12:28:35;;;;;;;6.80;4.50;;;28.00;92.10;;;;;;4977991;28;20042;-54
2023/06/23 12:31:03;;;;;;;5.05;3.90;;;28.00;91.40;;;;;;4971331;28;20046;-49
2023/06/23 12:33:29;;;;;;;5.43;4.32;;;27.90;91.40;;;;;;4971816;28;20412;-48
2023/06/23 12:35:58;;;;;;;6.28;3.65;;;27.80;90.90;;;;;;4973791;28;20046;-52
2023/06/23 12:38:24;;;;;;;7.03;4.00;;;27.60;91.70;;;;;;4973399;28;20376;-54
2023/06/23 12:40:51;;;;;;;5.60;3.72;;;27.80;91.40;;;;;;4974753;28;20042;-53
2023/06/23 12:43:18;;;;;;;6.63;3.95;;;27.70;90.60;;;;;;4971583;28;20034;-54
2023/06/23 12:45:46;;;;;;;8.43;3.75;;;27.50;90.60;;;;;;4971976;28;20160;-54
2023/06/23 12:48:12;;;;;;;4.80;3.75;;;27.40;90.90;;;;;;4964989;28;20421;-50
2023/06/23 12:50:41;;;;;;;5.75;4.22;;;27.50;90.80;;;;;;4964405;28;20045;-49